createdAt,value
2023-05-05T00:04:24.868Z,100037.19
2023-05-05T00:09:26.481Z,100038.66
2023-05-05T00:14:28.147Z,100035.91
2023-05-05T00:19:29.754Z,100033.66
2023-05-05T00:24:31.380Z,100023.13
2023-05-05T00:29:33.013Z,100024.06
2023-05-05T00:34:34.642Z,100017.84
2023-05-05T00:39:36.276Z,100019.16
2023-05-05T00:44:41.852Z,100010.00
2023-05-05T00:49:43.528Z,100003.53
2023-05-05T00:54:45.169Z,100001.31
2023-05-05T00:59:49.924Z,99996.63
2023-05-05T01:04:51.716Z,100000.06
2023-05-05T01:10:18.752Z,99992.94
2023-05-05T01:15:34.159Z,99993.22
2023-05-05T01:20:42.993Z,99991.53
2023-05-05T01:26:14.515Z,99999.84
2023-05-05T01:31:40.524Z,99994.84
2023-05-05T01:36:49.681Z,100001.41
2023-05-05T01:41:56.886Z,99998.44
2023-05-05T01:47:01.110Z,100000.97
2023-05-05T01:52:04.936Z,99993.16
2023-05-05T01:57:08.851Z,99988.63
2023-05-05T02:02:12.145Z,99995.25
2023-05-05T02:07:15.283Z,99991.44
2023-05-05T02:12:19.318Z,99981.16
2023-05-05T02:17:23.130Z,99969.94
2023-05-05T02:22:25.880Z,99966.16
2023-05-05T02:27:28.694Z,99962.78
2023-05-05T02:32:40.926Z,99964.91
2023-05-05T02:37:46.560Z,99958.31
2023-05-05T02:42:51.593Z,99966.72
2023-05-05T02:47:55.004Z,99956.00
2023-05-05T02:53:01.600Z,99962.38
2023-05-05T02:58:14.019Z,99968.13
2023-05-05T03:03:28.277Z,99971.78
2023-05-05T03:08:52.700Z,99975.16
2023-05-05T03:14:07.842Z,99964.19
2023-05-05T03:19:12.435Z,99969.22
2023-05-05T03:24:17.455Z,99973.28
2023-05-05T03:29:25.447Z,99973.09
2023-05-05T03:34:27.723Z,99975.38
2023-05-05T03:39:29.605Z,99976.25
2023-05-05T03:44:31.988Z,99974.03
2023-05-05T03:49:33.771Z,99971.75
2023-05-05T03:54:35.676Z,99973.59
2023-05-05T03:59:37.367Z,99977.81
2023-05-05T04:04:39.335Z,99976.16
2023-05-05T04:09:44.580Z,99972.19
2023-05-05T04:14:47.102Z,99979.78
2023-05-05T04:19:48.897Z,99981.72
2023-05-05T04:24:50.837Z,99975.97
2023-05-05T04:29:52.930Z,99979.16
2023-05-05T04:34:54.748Z,99982.38
2023-05-05T04:39:57.309Z,99992.69
2023-05-05T04:44:59.432Z,99989.28
2023-05-05T04:50:01.277Z,99994.28
2023-05-05T04:55:04.384Z,99994.41
2023-05-05T05:00:07.975Z,99994.28
2023-05-05T05:05:10.099Z,99991.81
2023-05-05T05:10:11.916Z,99996.47
2023-05-05T05:15:13.734Z,99992.56
2023-05-05T05:20:15.553Z,99999.31
2023-05-05T05:25:17.334Z,99998.44
2023-05-05T05:30:20.040Z,99999.66
2023-05-05T05:35:21.778Z,99999.44
2023-05-05T05:40:23.492Z,100005.53
2023-05-05T05:45:25.275Z,100006.28
2023-05-05T05:50:28.734Z,99999.06
2023-05-05T05:55:32.768Z,100002.88
2023-05-05T06:00:34.960Z,99997.50
2023-05-05T06:05:41.756Z,100001.25
2023-05-05T06:10:43.821Z,99994.75
2023-05-05T06:15:50.535Z,99999.44
2023-05-05T06:20:52.960Z,100007.88
2023-05-05T06:25:57.980Z,99997.47
2023-05-05T06:30:59.649Z,99998.09
2023-05-05T06:36:01.341Z,99999.28
2023-05-05T06:41:02.997Z,99992.63
2023-05-05T06:46:04.763Z,99990.94
2023-05-05T06:51:06.730Z,99983.19
2023-05-05T06:56:08.455Z,99977.84
2023-05-05T07:01:10.179Z,99966.22
2023-05-05T07:06:11.898Z,99971.69
2023-05-05T07:11:13.510Z,99978.19
2023-05-05T07:16:15.391Z,99980.13
2023-05-05T07:21:17.019Z,99965.66
2023-05-05T07:26:18.723Z,99955.31
2023-05-05T07:31:22.019Z,99955.53
2023-05-05T07:36:23.724Z,99957.97
2023-05-05T07:41:25.395Z,99951.97
2023-05-05T07:46:27.299Z,99961.34
2023-05-05T07:51:29.008Z,99951.88
2023-05-05T07:56:30.703Z,99954.53
2023-05-05T08:01:32.375Z,99949.94
2023-05-05T08:06:34.058Z,99948.94
2023-05-05T08:11:35.717Z,99943.81
2023-05-05T08:16:37.396Z,99951.34
2023-05-05T08:21:39.123Z,99938.22
2023-05-05T08:26:40.869Z,99937.16
2023-05-05T08:31:42.673Z,99930.25
2023-05-05T08:36:44.347Z,99931.69
2023-05-05T08:41:46.163Z,99920.31
2023-05-05T08:46:49.672Z,99922.94
2023-05-05T08:51:54.150Z,99917.91
2023-05-05T08:57:01.893Z,99899.69
2023-05-05T09:02:04.947Z,99907.28
2023-05-05T09:07:06.733Z,99913.03
2023-05-05T09:12:08.380Z,99899.91
2023-05-05T09:17:25.738Z,99888.88
2023-05-05T09:22:35.472Z,99902.88
2023-05-05T09:27:42.776Z,99904.63
2023-05-05T09:32:49.036Z,99888.28
2023-05-05T09:37:50.827Z,99898.66
2023-05-05T09:43:01.851Z,99905.19
2023-05-05T09:48:06.357Z,99895.91
2023-05-05T09:53:08.225Z,99891.06
2023-05-05T09:58:20.257Z,99879.72
2023-05-05T10:03:22.920Z,99877.56
2023-05-05T10:08:27.106Z,99879.41
2023-05-05T10:13:28.973Z,99870.25
2023-05-05T10:18:32.012Z,99872.41
2023-05-05T10:23:41.686Z,99868.16
2023-05-05T10:28:56.612Z,99848.03
2023-05-05T10:34:04.150Z,99847.00
2023-05-05T10:39:10.923Z,99841.53
2023-05-05T10:44:14.618Z,99835.66
2023-05-05T10:49:40.794Z,99835.66
2023-05-05T10:54:49.862Z,99834.56
2023-05-05T10:59:51.978Z,99828.53
2023-05-05T11:05:18.367Z,99820.16
2023-05-05T11:10:21.222Z,99815.91
2023-05-05T11:15:31.656Z,99818.94
2023-05-05T11:20:36.825Z,99802.75
2023-05-05T11:25:40.667Z,99798.22
2023-05-05T11:30:58.656Z,99788.63
2023-05-05T11:36:05.971Z,99773.50
2023-05-05T11:41:27.876Z,99777.59
2023-05-05T11:46:29.530Z,99780.34
2023-05-05T11:51:31.623Z,99768.56
2023-05-05T11:56:33.289Z,99771.78
2023-05-05T12:01:35.899Z,99768.03
2023-05-05T12:06:37.654Z,99764.53
2023-05-05T12:11:52.536Z,99754.81
2023-05-05T12:16:58.529Z,99768.75
2023-05-05T12:22:04.968Z,99759.75
2023-05-05T12:27:11.003Z,99770.69
2023-05-05T12:32:24.058Z,99764.38
2023-05-05T12:37:27.557Z,99762.53
2023-05-05T12:42:29.325Z,99754.84
2023-05-05T12:47:32.316Z,99748.09
2023-05-05T12:52:43.947Z,99753.84
2023-05-05T12:58:02.110Z,99754.66
2023-05-05T13:03:06.089Z,99752.41
2023-05-05T13:08:07.776Z,99751.88
2023-05-05T13:13:09.761Z,99745.53
2023-05-05T13:18:11.452Z,99740.16
2023-05-05T13:23:13.143Z,99739.59
2023-05-05T13:28:14.756Z,99725.31
2023-05-05T13:33:16.398Z,99732.72
2023-05-05T13:38:18.066Z,99728.06
2023-05-05T13:43:20.638Z,99703.63
2023-05-05T13:48:22.483Z,99706.41
2023-05-05T13:53:24.076Z,99699.91
2023-05-05T13:58:25.762Z,99700.59
2023-05-05T14:03:27.389Z,99700.53
2023-05-05T14:08:29.036Z,99695.81
2023-05-05T14:13:30.670Z,99685.75
2023-05-05T14:18:32.320Z,99677.22
2023-05-05T14:23:33.980Z,99679.44
2023-05-05T14:28:35.725Z,99682.38
2023-05-05T14:33:37.396Z,99677.22
2023-05-05T14:38:39.044Z,99683.94
2023-05-05T14:43:41.025Z,99678.09
2023-05-05T14:48:42.775Z,99676.78
2023-05-05T14:53:44.514Z,99673.28
2023-05-05T14:58:47.730Z,99660.50
2023-05-05T15:03:52.082Z,99662.88
2023-05-05T15:08:53.916Z,99659.78
2023-05-05T15:13:55.526Z,99656.00
2023-05-05T15:18:57.403Z,99649.31
2023-05-05T15:23:59.008Z,99645.53
2023-05-05T15:29:00.724Z,99647.06
2023-05-05T15:34:02.345Z,99645.00
2023-05-05T15:39:04.424Z,99638.28
2023-05-05T15:44:06.100Z,99629.69
2023-05-05T15:49:07.727Z,99636.25
2023-05-05T15:54:09.379Z,99633.88
2023-05-05T15:59:11.035Z,99631.94
2023-05-05T16:04:12.761Z,99626.94
2023-05-05T16:09:14.379Z,99630.06
2023-05-05T16:14:16.095Z,99629.22
2023-05-05T16:19:18.168Z,99627.63
2023-05-05T16:24:19.858Z,99614.31
2023-05-05T16:29:21.528Z,99621.56
2023-05-05T16:34:23.128Z,99620.38
2023-05-05T16:39:26.233Z,99609.28
2023-05-05T16:44:27.884Z,99606.88
2023-05-05T16:49:29.531Z,99613.72
2023-05-05T16:54:31.154Z,99613.81
2023-05-05T16:59:32.766Z,99615.22
2023-05-05T17:04:34.364Z,99613.47
2023-05-05T17:09:36.035Z,99620.50
2023-05-05T17:14:37.715Z,99620.97
2023-05-05T17:19:39.385Z,99610.75
2023-05-05T17:24:40.996Z,99606.63
2023-05-05T17:29:42.607Z,99611.78
2023-05-05T17:34:44.214Z,99605.09
2023-05-05T17:39:45.820Z,99599.09
2023-05-05T17:44:47.736Z,99603.56
2023-05-05T17:49:49.412Z,99604.31
2023-05-05T17:54:52.167Z,99603.00
2023-05-05T17:59:53.960Z,99595.63
2023-05-05T18:04:55.606Z,99588.91
2023-05-05T18:09:57.235Z,99603.84
2023-05-05T18:14:58.843Z,99598.63
2023-05-05T18:20:00.575Z,99603.91
2023-05-05T18:25:02.208Z,99615.78
2023-05-05T18:30:04.874Z,99614.50
2023-05-05T18:35:07.221Z,99617.22
2023-05-05T18:40:10.195Z,99620.44
2023-05-05T18:45:11.915Z,99622.34
2023-05-05T18:50:13.628Z,99626.31
2023-05-05T18:55:15.267Z,99632.97
2023-05-05T19:00:19.853Z,99632.50
2023-05-05T19:05:21.673Z,99641.69
2023-05-05T19:10:23.375Z,99646.22
2023-05-05T19:15:26.012Z,99641.13
2023-05-05T19:20:27.969Z,99644.41
2023-05-05T19:25:30.589Z,99646.78
2023-05-05T19:30:32.367Z,99650.13
2023-05-05T19:35:33.993Z,99649.56
2023-05-05T19:40:37.163Z,99649.88
2023-05-05T19:45:38.779Z,99653.09
2023-05-05T19:50:40.441Z,99647.28
2023-05-05T19:55:42.048Z,99646.03
2023-05-05T20:00:43.662Z,99644.91
2023-05-05T20:05:45.291Z,99651.53
2023-05-05T20:10:47.124Z,99637.75
2023-05-05T20:15:48.797Z,99639.66
2023-05-05T20:20:51.175Z,99627.50
2023-05-05T20:25:54.080Z,99628.50
2023-05-05T20:30:55.680Z,99621.66
2023-05-05T20:35:57.302Z,99615.09
2023-05-05T20:40:59.207Z,99608.53
2023-05-05T20:46:01.423Z,99613.59
2023-05-05T20:51:04.345Z,99617.31
2023-05-05T20:56:08.009Z,99618.56
2023-05-05T21:01:10.373Z,99619.22
2023-05-05T21:06:12.041Z,99612.38
2023-05-05T21:11:13.726Z,99607.81
2023-05-05T21:16:15.343Z,99611.47
2023-05-05T21:21:17.269Z,99601.69
2023-05-05T21:26:18.923Z,99587.66
2023-05-05T21:31:22.233Z,99584.72
2023-05-05T21:36:24.825Z,99588.03
2023-05-05T21:41:27.036Z,99583.44
2023-05-05T21:46:28.943Z,99584.75
2023-05-05T21:51:31.264Z,99598.66
2023-05-05T21:56:34.033Z,99604.25
2023-05-05T22:01:35.662Z,99590.09
2023-05-05T22:06:37.289Z,99589.31
2023-05-05T22:11:38.953Z,99583.03
2023-05-05T22:16:40.658Z,99588.03
2023-05-05T22:21:42.361Z,99580.91
2023-05-05T22:26:43.979Z,99589.84
2023-05-05T22:31:45.658Z,99605.84
2023-05-05T22:36:48.419Z,99617.13
2023-05-05T22:41:50.020Z,99641.22
2023-05-05T22:46:51.731Z,99653.06
2023-05-05T22:51:53.718Z,99655.19
2023-05-05T22:56:55.339Z,99677.53
2023-05-05T23:01:56.941Z,99670.19
2023-05-05T23:06:58.595Z,99667.72
2023-05-05T23:12:00.653Z,99670.38
2023-05-05T23:17:02.403Z,99661.56
2023-05-05T23:22:04.814Z,99662.28
2023-05-05T23:27:06.492Z,99665.41
2023-05-05T23:32:08.379Z,99667.38
2023-05-05T23:37:10.027Z,99660.94
2023-05-05T23:42:11.631Z,99659.94
2023-05-05T23:47:13.433Z,99669.16
2023-05-05T23:52:15.108Z,99663.03
2023-05-05T23:57:16.901Z,99665.25
